createdAt,value
2019-01-20T00:01:03.024Z,19.03
2019-01-20T00:03:30.575Z,20.50
2019-01-20T00:05:58.068Z,19.00
2019-01-20T00:08:25.551Z,17.60
2019-01-20T00:10:53.048Z,20.03
2019-01-20T00:13:20.507Z,19.87
2019-01-20T00:15:48.141Z,19.00
2019-01-20T00:18:15.646Z,21.40
2019-01-20T00:20:43.117Z,20.60
2019-01-20T00:23:10.568Z,18.93
2019-01-20T00:25:37.985Z,21.57
2019-01-20T00:28:05.535Z,25.43
2019-01-20T00:30:33.016Z,23.63
2019-01-20T00:33:00.339Z,24.53
2019-01-20T00:35:28.395Z,22.67
2019-01-20T00:37:55.858Z,22.63
2019-01-20T00:40:23.484Z,23.70
2019-01-20T00:42:50.953Z,22.40
2019-01-20T00:45:18.469Z,19.97
2019-01-20T00:47:45.785Z,23.40
2019-01-20T00:50:15.903Z,23.73
2019-01-20T00:52:43.753Z,24.70
2019-01-20T00:55:13.373Z,24.37
2019-01-20T00:57:41.365Z,23.00
2019-01-20T01:00:15.775Z,23.17
2019-01-20T01:02:43.452Z,22.50
2019-01-20T01:05:11.070Z,21.97
2019-01-20T01:07:40.122Z,22.30
2019-01-20T01:10:07.839Z,22.70
2019-01-20T01:12:35.333Z,21.67
2019-01-20T01:15:03.898Z,20.07
2019-01-20T01:17:31.348Z,22.20
2019-01-20T01:19:58.800Z,22.50
2019-01-20T01:22:26.262Z,23.40
2019-01-20T01:24:53.777Z,24.97
2019-01-20T01:27:21.226Z,24.40
2019-01-20T01:29:48.727Z,26.07
2019-01-20T01:32:16.247Z,24.97
2019-01-20T01:34:43.749Z,26.60
2019-01-20T01:37:11.263Z,25.20
2019-01-20T01:39:38.693Z,25.37
2019-01-20T01:42:06.213Z,24.60
2019-01-20T01:44:33.682Z,26.23
2019-01-20T01:47:01.156Z,24.73
2019-01-20T01:49:28.704Z,26.20
2019-01-20T01:51:56.179Z,22.73
2019-01-20T01:54:24.035Z,22.93
2019-01-20T01:56:51.511Z,24.20
2019-01-20T01:59:19.232Z,25.63
2019-01-20T02:01:46.699Z,23.50
2019-01-20T02:04:14.664Z,24.83
2019-01-20T02:06:42.093Z,23.70
2019-01-20T02:09:09.478Z,24.07
2019-01-20T02:11:37.057Z,22.77
2019-01-20T02:14:04.825Z,25.17
2019-01-20T02:16:32.274Z,25.03
2019-01-20T02:19:00.195Z,23.50
2019-01-20T02:21:27.652Z,24.83
2019-01-20T02:23:55.164Z,23.00
2019-01-20T02:26:22.620Z,23.77
2019-01-20T02:28:50.150Z,23.43
2019-01-20T02:31:17.749Z,23.70
2019-01-20T02:33:45.273Z,22.83
2019-01-20T02:36:13.042Z,20.10
2019-01-20T02:38:40.509Z,20.67
2019-01-20T02:41:07.851Z,21.20
2019-01-20T02:43:35.315Z,21.27
2019-01-20T02:46:02.893Z,19.80
2019-01-20T02:48:30.382Z,18.60
2019-01-20T02:50:57.826Z,21.20
2019-01-20T02:53:25.299Z,21.03
2019-01-20T02:55:53.104Z,20.57
2019-01-20T02:58:20.570Z,19.57
2019-01-20T03:00:48.008Z,21.00
2019-01-20T03:03:15.779Z,19.73
2019-01-20T03:05:43.420Z,20.73
2019-01-20T03:08:10.912Z,20.63
2019-01-20T03:10:38.367Z,20.50
2019-01-20T03:13:05.819Z,21.10
2019-01-20T03:15:33.409Z,21.60
2019-01-20T03:18:00.927Z,20.13
2019-01-20T03:20:28.458Z,20.10
2019-01-20T03:22:56.059Z,18.07
2019-01-20T03:25:23.370Z,19.87
2019-01-20T03:27:50.892Z,20.10
2019-01-20T03:30:21.459Z,19.10
2019-01-20T03:32:49.073Z,19.87
2019-01-20T03:35:19.670Z,18.60
2019-01-20T03:37:47.135Z,18.50
2019-01-20T03:40:15.857Z,19.90
2019-01-20T03:42:44.436Z,19.53
2019-01-20T03:45:14.103Z,20.43
2019-01-20T03:47:41.538Z,20.13
2019-01-20T03:50:10.412Z,19.43
2019-01-20T03:52:37.892Z,20.33
2019-01-20T03:55:05.831Z,19.90
2019-01-20T03:57:33.767Z,19.30
2019-01-20T04:00:01.806Z,20.87
2019-01-20T04:02:29.660Z,19.87
2019-01-20T04:04:57.174Z,21.20
2019-01-20T04:07:24.694Z,21.17
2019-01-20T04:09:52.128Z,21.10
2019-01-20T04:12:20.768Z,20.03
2019-01-20T04:14:48.591Z,19.63
2019-01-20T04:17:16.107Z,19.70
2019-01-20T04:19:44.025Z,21.07
2019-01-20T04:22:11.901Z,20.33
2019-01-20T04:24:39.421Z,20.67
2019-01-20T04:27:06.919Z,19.73
2019-01-20T04:29:34.501Z,19.37
2019-01-20T04:32:02.009Z,20.27
2019-01-20T04:34:29.887Z,19.47
2019-01-20T04:36:57.553Z,20.90
2019-01-20T04:39:25.040Z,21.03
2019-01-20T04:41:52.609Z,22.43
2019-01-20T04:44:20.174Z,20.00
2019-01-20T04:46:47.741Z,21.53
2019-01-20T04:49:15.240Z,21.17
2019-01-20T04:51:42.873Z,21.60
2019-01-20T04:54:10.636Z,22.77
2019-01-20T04:56:38.663Z,20.27
2019-01-20T04:59:06.066Z,23.07
2019-01-20T05:01:33.965Z,21.67
2019-01-20T05:04:01.490Z,20.53
2019-01-20T05:06:29.476Z,21.40
2019-01-20T05:08:57.010Z,21.13
2019-01-20T05:11:24.511Z,22.67
2019-01-20T05:13:52.121Z,21.70
2019-01-20T05:16:19.669Z,20.70
2019-01-20T05:18:47.200Z,22.20
2019-01-20T05:21:14.676Z,20.57
2019-01-20T05:23:42.218Z,22.73
2019-01-20T05:26:09.709Z,21.57
2019-01-20T05:28:37.248Z,21.97
2019-01-20T05:31:04.833Z,21.63
2019-01-20T05:33:32.469Z,22.60
2019-01-20T05:35:59.907Z,24.03
2019-01-20T05:38:27.495Z,23.07
2019-01-20T05:40:54.957Z,22.30
2019-01-20T05:43:22.501Z,22.40
2019-01-20T05:45:49.976Z,20.97
2019-01-20T05:48:17.601Z,22.63
2019-01-20T05:50:45.441Z,21.80
2019-01-20T05:53:12.931Z,22.40
2019-01-20T05:55:40.463Z,24.70
2019-01-20T05:58:07.979Z,23.20
2019-01-20T06:00:36.121Z,21.87
2019-01-20T06:03:03.995Z,24.00
2019-01-20T06:05:31.716Z,22.87
2019-01-20T06:07:59.223Z,24.30
2019-01-20T06:10:26.747Z,22.07
2019-01-20T06:12:54.625Z,24.17
2019-01-20T06:15:23.314Z,24.37
2019-01-20T06:17:50.846Z,23.23
2019-01-20T06:20:18.388Z,24.47
2019-01-20T06:22:45.735Z,23.70
2019-01-20T06:25:13.356Z,23.60
2019-01-20T06:27:40.832Z,25.13
2019-01-20T06:30:17.138Z,25.67
2019-01-20T06:32:44.582Z,24.43
2019-01-20T06:35:12.184Z,25.60
2019-01-20T06:37:40.037Z,24.67
2019-01-20T06:40:08.163Z,24.80
2019-01-20T06:42:36.037Z,25.53
2019-01-20T06:45:04.873Z,22.73
2019-01-20T06:47:32.415Z,23.73
2019-01-20T06:49:59.920Z,25.17
2019-01-20T06:52:27.698Z,24.17
2019-01-20T06:54:55.167Z,23.17
2019-01-20T06:57:22.675Z,25.57
2019-01-20T06:59:50.205Z,26.53
2019-01-20T07:02:17.767Z,24.23
2019-01-20T07:04:45.380Z,24.37
2019-01-20T07:07:12.838Z,25.17
2019-01-20T07:09:40.385Z,24.97
2019-01-20T07:12:07.772Z,24.70
2019-01-20T07:14:35.265Z,25.37
2019-01-20T07:17:02.850Z,24.60
2019-01-20T07:19:30.260Z,25.67
2019-01-20T07:21:57.741Z,26.83
2019-01-20T07:24:25.191Z,24.07
2019-01-20T07:26:52.693Z,25.97
2019-01-20T07:29:20.259Z,24.63
2019-01-20T07:31:47.895Z,25.00
2019-01-20T07:34:15.414Z,26.53
2019-01-20T07:36:44.027Z,29.33
2019-01-20T07:39:11.671Z,25.60
2019-01-20T07:41:39.755Z,23.83
2019-01-20T07:44:07.297Z,23.97
2019-01-20T07:46:34.788Z,25.33
2019-01-20T07:49:02.353Z,26.07
2019-01-20T07:51:29.879Z,24.30
2019-01-20T07:53:57.391Z,25.90
2019-01-20T07:56:24.915Z,25.43
2019-01-20T07:58:52.514Z,25.23
2019-01-20T08:01:19.997Z,24.17
2019-01-20T08:03:47.846Z,25.13
2019-01-20T08:06:15.362Z,24.23
2019-01-20T08:08:42.835Z,23.47
2019-01-20T08:11:10.359Z,24.90
2019-01-20T08:13:37.913Z,25.20
2019-01-20T08:16:05.441Z,23.67
2019-01-20T08:18:32.952Z,24.77
2019-01-20T08:21:00.453Z,24.67
2019-01-20T08:23:27.839Z,27.20
2019-01-20T08:25:55.363Z,26.13
2019-01-20T08:28:23.396Z,25.23
2019-01-20T08:30:50.795Z,23.43
2019-01-20T08:33:18.418Z,29.97
2019-01-20T08:35:46.336Z,25.10
2019-01-20T08:38:14.230Z,25.53
2019-01-20T08:40:41.732Z,27.23
2019-01-20T08:43:09.584Z,28.37
2019-01-20T08:46:05.664Z,25.07
2019-01-20T08:48:33.391Z,23.70
2019-01-20T08:51:01.140Z,23.03
2019-01-20T08:53:28.801Z,24.93
2019-01-20T08:55:57.333Z,23.47
2019-01-20T08:58:25.053Z,24.10
2019-01-20T09:00:52.586Z,24.23
2019-01-20T09:03:20.109Z,22.20
2019-01-20T09:05:48.246Z,23.73
2019-01-20T09:08:15.785Z,22.83
2019-01-20T09:10:43.235Z,21.30
2019-01-20T09:13:10.932Z,22.10
2019-01-20T09:15:39.567Z,22.70
2019-01-20T09:18:07.074Z,21.17
2019-01-20T09:20:34.939Z,22.20
2019-01-20T09:23:02.462Z,24.00
2019-01-20T09:25:29.985Z,21.03
2019-01-20T09:27:57.391Z,23.67
2019-01-20T09:30:25.814Z,25.50
2019-01-20T09:32:53.296Z,25.83
2019-01-20T09:35:21.319Z,28.57
2019-01-20T09:37:48.803Z,26.70
2019-01-20T09:40:16.313Z,26.10
2019-01-20T09:42:44.258Z,25.47
2019-01-20T09:45:19.026Z,28.07
2019-01-20T09:47:46.520Z,26.83
2019-01-20T09:50:13.927Z,27.60
2019-01-20T09:52:41.523Z,28.40
2019-01-20T09:55:09.035Z,28.33
2019-01-20T09:57:36.593Z,26.70
2019-01-20T10:00:07.049Z,27.80
2019-01-20T10:02:34.531Z,25.43
2019-01-20T10:05:01.997Z,23.40
2019-01-20T10:07:29.493Z,25.63
2019-01-20T10:09:57.062Z,24.97
2019-01-20T10:12:24.547Z,26.03
2019-01-20T10:14:52.040Z,24.07
2019-01-20T10:17:19.571Z,26.07
2019-01-20T10:19:47.085Z,21.70
2019-01-20T10:22:14.417Z,28.03
2019-01-20T10:25:06.925Z,24.17
2019-01-20T10:27:35.620Z,23.90
2019-01-20T10:30:07.092Z,22.77
2019-01-20T10:32:34.448Z,22.80
2019-01-20T10:35:02.193Z,24.87
2019-01-20T10:37:29.876Z,22.33
2019-01-20T10:39:57.239Z,23.50
2019-01-20T10:42:24.743Z,21.77
2019-01-20T10:44:52.243Z,21.93
2019-01-20T10:47:19.826Z,22.20
2019-01-20T10:49:47.405Z,21.57
2019-01-20T10:52:14.982Z,23.57
2019-01-20T10:54:42.469Z,21.63
2019-01-20T10:57:10.883Z,22.63
2019-01-20T10:59:38.455Z,21.53
2019-01-20T11:02:06.019Z,21.47
2019-01-20T11:04:33.853Z,21.77
2019-01-20T11:07:01.705Z,21.90
2019-01-20T11:09:29.394Z,21.07
2019-01-20T11:11:56.944Z,19.10
2019-01-20T11:14:24.397Z,20.13
2019-01-20T11:16:51.793Z,16.97
2019-01-20T11:19:19.269Z,16.40
2019-01-20T11:21:46.734Z,17.67
2019-01-20T11:24:14.109Z,17.37
2019-01-20T11:26:41.523Z,18.93
2019-01-20T11:29:09.032Z,19.23
2019-01-20T11:31:37.605Z,19.33
2019-01-20T11:34:05.113Z,17.27
2019-01-20T11:36:32.599Z,18.33
2019-01-20T11:39:00.078Z,18.47
2019-01-20T11:41:28.437Z,19.87
2019-01-20T11:43:56.093Z,20.10
2019-01-20T11:46:23.532Z,19.10
2019-01-20T11:48:51.027Z,19.20
2019-01-20T11:51:18.530Z,17.53
2019-01-20T11:53:45.900Z,17.50
2019-01-20T11:56:13.375Z,26.47
2019-01-20T11:58:40.885Z,24.17
2019-01-20T12:01:08.693Z,21.77
2019-01-20T12:03:36.131Z,21.60
2019-01-20T12:06:04.026Z,26.73
2019-01-20T12:08:31.527Z,21.20
2019-01-20T12:10:59.005Z,22.30
2019-01-20T12:13:27.412Z,23.73
2019-01-20T12:15:54.916Z,23.00
2019-01-20T12:18:22.452Z,23.77
2019-01-20T12:20:50.013Z,28.77
2019-01-20T12:23:17.526Z,22.20
2019-01-20T12:25:44.947Z,20.10
2019-01-20T12:28:12.487Z,21.07
2019-01-20T12:30:39.954Z,21.07
2019-01-20T12:33:07.966Z,21.37
2019-01-20T12:35:35.498Z,22.77
2019-01-20T12:38:03.128Z,23.23
2019-01-20T12:40:36.846Z,22.37
2019-01-20T12:43:04.503Z,21.43
2019-01-20T12:45:33.694Z,21.87
2019-01-20T12:48:01.227Z,22.53
2019-01-20T12:50:28.688Z,24.90
2019-01-20T12:52:56.178Z,24.63
2019-01-20T12:55:24.704Z,23.03
2019-01-20T12:57:52.179Z,24.10
2019-01-20T13:00:19.787Z,25.83
2019-01-20T13:02:47.471Z,24.83
2019-01-20T13:05:15.143Z,24.10
2019-01-20T13:07:43.120Z,24.57
2019-01-20T13:10:12.055Z,24.20
2019-01-20T13:12:39.660Z,24.33
2019-01-20T13:15:09.872Z,24.97
2019-01-20T13:17:37.321Z,24.47
2019-01-20T13:20:08.115Z,24.30
2019-01-20T13:22:35.606Z,25.00
2019-01-20T13:25:04.209Z,24.67
2019-01-20T13:27:31.679Z,24.60
2019-01-20T13:29:59.073Z,24.47
2019-01-20T13:32:26.528Z,23.37
2019-01-20T13:34:54.018Z,24.97
2019-01-20T13:37:21.484Z,24.27
2019-01-20T13:39:48.854Z,23.30
2019-01-20T13:42:16.825Z,22.20
2019-01-20T13:44:46.257Z,24.37
2019-01-20T13:47:13.777Z,22.90
2019-01-20T13:49:41.179Z,25.13
2019-01-20T13:52:08.708Z,27.27
2019-01-20T13:54:36.230Z,28.43
2019-01-20T13:57:04.048Z,28.00
2019-01-20T13:59:31.616Z,25.67
2019-01-20T14:01:59.024Z,24.47
2019-01-20T14:04:26.891Z,25.20
2019-01-20T14:06:54.356Z,25.47
2019-01-20T14:09:21.847Z,24.20
2019-01-20T14:11:49.295Z,21.80
2019-01-20T14:14:16.821Z,23.50
2019-01-20T14:16:44.729Z,22.37
2019-01-20T14:19:12.198Z,24.67
2019-01-20T14:21:39.795Z,23.40
2019-01-20T14:24:07.300Z,24.40
2019-01-20T14:26:34.791Z,22.30
2019-01-20T14:29:02.320Z,22.03
2019-01-20T14:31:29.829Z,23.13
2019-01-20T14:33:57.343Z,23.73
2019-01-20T14:36:25.261Z,24.50
2019-01-20T14:38:52.770Z,22.57
2019-01-20T14:41:20.767Z,22.30
2019-01-20T14:43:48.765Z,22.63
2019-01-20T14:46:16.195Z,23.80
2019-01-20T14:48:43.680Z,18.73
2019-01-20T14:51:11.206Z,21.07
2019-01-20T14:53:38.765Z,20.87
2019-01-20T14:56:06.386Z,19.90
2019-01-20T14:58:33.841Z,19.80
2019-01-20T15:01:01.347Z,20.90
2019-01-20T15:03:28.967Z,20.13
2019-01-20T15:05:57.217Z,21.40
2019-01-20T15:08:24.760Z,21.87
2019-01-20T15:10:52.331Z,21.67
2019-01-20T15:13:20.109Z,22.23
2019-01-20T15:15:49.111Z,22.37
2019-01-20T15:18:16.698Z,21.40
2019-01-20T15:20:44.296Z,21.00
2019-01-20T15:23:11.978Z,22.27
2019-01-20T15:25:39.659Z,22.80
2019-01-20T15:28:07.589Z,21.37
2019-01-20T15:30:35.480Z,21.40
2019-01-20T15:33:03.805Z,21.33
2019-01-20T15:35:31.650Z,21.07
2019-01-20T15:37:59.342Z,22.27
2019-01-20T15:40:26.866Z,20.63
2019-01-20T15:42:54.509Z,20.70
2019-01-20T15:45:22.546Z,22.27
2019-01-20T15:47:50.125Z,21.10
2019-01-20T15:50:19.959Z,22.27
2019-01-20T15:52:47.605Z,21.70
2019-01-20T15:55:15.483Z,20.67
2019-01-20T15:57:43.211Z,19.83
2019-01-20T16:00:16.847Z,20.90
2019-01-20T16:02:44.503Z,18.73
2019-01-20T16:05:12.282Z,18.80
2019-01-20T16:07:39.902Z,19.43
2019-01-20T16:10:08.974Z,20.17
2019-01-20T16:12:37.114Z,20.70
2019-01-20T16:15:09.875Z,20.97
2019-01-20T16:17:42.509Z,20.13
2019-01-20T16:20:11.222Z,20.80
2019-01-20T16:22:38.956Z,21.13
2019-01-20T16:25:11.581Z,22.33
2019-01-20T16:27:39.227Z,23.63
2019-01-20T16:30:18.212Z,25.60
2019-01-20T16:32:45.783Z,24.40
2019-01-20T16:35:13.618Z,26.07
2019-01-20T16:37:42.233Z,24.07
2019-01-20T16:40:13.180Z,28.83
2019-01-20T16:42:40.829Z,24.50
2019-01-20T16:45:10.228Z,24.87
2019-01-20T16:47:41.145Z,26.07
2019-01-20T16:50:09.466Z,24.50
2019-01-20T16:52:36.937Z,27.30
2019-01-20T16:55:04.786Z,24.63
2019-01-20T16:57:32.489Z,26.73
2019-01-20T17:00:00.263Z,26.17
2019-01-20T17:02:27.870Z,25.70
2019-01-20T17:04:55.374Z,26.80
2019-01-20T17:07:22.875Z,26.37
2019-01-20T17:09:50.402Z,27.03
2019-01-20T17:12:17.884Z,27.30
2019-01-20T17:14:45.405Z,26.50
2019-01-20T17:17:13.019Z,26.73
2019-01-20T17:19:40.530Z,26.17
2019-01-20T17:22:08.066Z,25.77
2019-01-20T17:24:35.597Z,26.50
2019-01-20T17:27:03.234Z,27.40
2019-01-20T17:29:31.150Z,28.43
2019-01-20T17:31:58.858Z,25.47
2019-01-20T17:34:26.916Z,25.57
2019-01-20T17:36:54.459Z,27.67
2019-01-20T17:39:21.978Z,28.17
2019-01-20T17:41:49.434Z,27.23
2019-01-20T17:44:16.985Z,27.27
2019-01-20T17:46:44.379Z,29.53
2019-01-20T17:49:11.887Z,29.00
2019-01-20T17:51:42.110Z,27.90
2019-01-20T17:54:09.651Z,25.77
2019-01-20T17:56:37.158Z,25.37
2019-01-20T17:59:04.668Z,27.50
2019-01-20T18:01:32.166Z,27.00
2019-01-20T18:03:59.640Z,28.13
2019-01-20T18:06:27.157Z,27.17
2019-01-20T18:08:54.674Z,27.13
2019-01-20T18:11:22.228Z,28.97
2019-01-20T18:13:49.612Z,30.67
2019-01-20T18:16:17.116Z,30.90
2019-01-20T18:18:44.467Z,26.20
2019-01-20T18:21:11.997Z,26.73
2019-01-20T18:23:40.509Z,36.53
2019-01-20T18:26:08.813Z,36.70
2019-01-20T18:28:36.323Z,29.07
2019-01-20T18:31:03.859Z,26.87
2019-01-20T18:33:31.502Z,27.30
2019-01-20T18:35:59.160Z,26.17
2019-01-20T18:38:26.694Z,30.80
2019-01-20T18:40:57.266Z,33.97
2019-01-20T18:43:24.812Z,36.80
2019-01-20T18:45:52.356Z,30.83
2019-01-20T18:48:19.890Z,31.60
2019-01-20T18:50:47.521Z,32.20
2019-01-20T18:53:15.033Z,31.67
2019-01-20T18:55:42.631Z,30.20
2019-01-20T18:58:10.116Z,31.93
2019-01-20T19:00:45.804Z,31.43
2019-01-20T19:03:13.407Z,32.07
2019-01-20T19:05:41.015Z,33.27
2019-01-20T19:08:09.000Z,34.83
2019-01-20T19:10:36.597Z,32.20
2019-01-20T19:13:04.636Z,30.40
2019-01-20T19:15:32.299Z,27.90
2019-01-20T19:17:59.833Z,31.60
2019-01-20T19:20:27.348Z,30.23
2019-01-20T19:22:55.344Z,29.27
2019-01-20T19:25:22.941Z,29.40
2019-01-20T19:27:50.464Z,30.40
2019-01-20T19:30:20.150Z,28.87
2019-01-20T19:32:47.647Z,33.73
2019-01-20T19:35:15.762Z,33.00
2019-01-20T19:37:43.340Z,30.50
2019-01-20T19:40:11.118Z,31.27
2019-01-20T19:42:38.667Z,32.83
2019-01-20T19:45:08.489Z,31.10
2019-01-20T19:47:36.016Z,29.53
2019-01-20T19:50:04.361Z,35.03
2019-01-20T19:52:31.884Z,35.23
2019-01-20T19:54:59.361Z,35.53
2019-01-20T19:57:27.291Z,32.10
2019-01-20T19:59:54.849Z,35.77
2019-01-20T20:02:22.509Z,30.50
2019-01-20T20:04:49.886Z,32.43
2019-01-20T20:07:17.861Z,33.20
2019-01-20T20:09:45.541Z,32.40
2019-01-20T20:12:13.115Z,30.93
2019-01-20T20:14:40.746Z,30.87
2019-01-20T20:17:08.299Z,32.17
2019-01-20T20:19:35.878Z,31.23
2019-01-20T20:22:03.492Z,29.67
2019-01-20T20:24:30.964Z,28.93
2019-01-20T20:26:58.562Z,28.20
2019-01-20T20:29:26.079Z,30.10
2019-01-20T20:31:53.666Z,28.57
2019-01-20T20:34:21.674Z,28.00
2019-01-20T20:36:49.168Z,29.63
2019-01-20T20:39:16.741Z,29.83
2019-01-20T20:41:44.216Z,29.80
2019-01-20T20:44:12.661Z,29.77
2019-01-20T20:46:40.167Z,31.97
2019-01-20T20:49:07.597Z,29.37
2019-01-20T20:51:35.480Z,30.57
2019-01-20T20:54:02.989Z,28.57
2019-01-20T20:56:30.527Z,30.47
2019-01-20T20:58:58.126Z,30.90
2019-01-20T21:01:25.681Z,31.93
2019-01-20T21:03:53.258Z,30.20
2019-01-20T21:06:21.700Z,29.70
2019-01-20T21:08:49.433Z,32.53
2019-01-20T21:11:16.964Z,29.07
2019-01-20T21:13:44.384Z,30.60
2019-01-20T21:16:11.953Z,29.97
2019-01-20T21:18:39.485Z,31.20
2019-01-20T21:21:07.010Z,30.27
2019-01-20T21:23:34.631Z,30.10
2019-01-20T21:26:02.179Z,30.60
2019-01-20T21:28:29.692Z,29.73
2019-01-20T21:30:57.095Z,28.77
2019-01-20T21:33:24.692Z,29.57
2019-01-20T21:35:52.617Z,31.33
2019-01-20T21:38:20.225Z,30.40
2019-01-20T21:40:47.848Z,32.53
2019-01-20T21:43:15.343Z,30.37
2019-01-20T21:45:42.972Z,30.60
2019-01-20T21:48:10.561Z,31.10
2019-01-20T21:50:38.902Z,28.47
2019-01-20T21:53:06.481Z,31.77
2019-01-20T21:55:34.247Z,31.67
2019-01-20T21:58:01.839Z,30.53
2019-01-20T22:00:29.462Z,30.83
2019-01-20T22:02:57.008Z,28.23
2019-01-20T22:05:24.641Z,30.60
2019-01-20T22:07:52.161Z,32.00
2019-01-20T22:10:20.608Z,30.57
2019-01-20T22:12:48.148Z,31.90
2019-01-20T22:15:15.979Z,31.87
2019-01-20T22:17:44.037Z,32.90
2019-01-20T22:20:16.554Z,31.20
2019-01-20T22:22:44.216Z,31.67
2019-01-20T22:25:12.067Z,32.13
2019-01-20T22:27:39.539Z,29.37
2019-01-20T22:30:10.831Z,27.50
2019-01-20T22:32:38.364Z,31.20
2019-01-20T22:35:07.472Z,28.70
2019-01-20T22:37:34.968Z,31.03
2019-01-20T22:40:02.684Z,31.00
2019-01-20T22:42:30.247Z,32.93
2019-01-20T22:44:58.043Z,30.97
2019-01-20T22:47:26.659Z,33.43
2019-01-20T22:49:54.136Z,32.37
2019-01-20T22:52:21.665Z,38.93
2019-01-20T22:54:49.391Z,32.67
2019-01-20T22:57:16.840Z,32.20
2019-01-20T22:59:44.375Z,30.43
2019-01-20T23:02:11.999Z,29.00
2019-01-20T23:04:39.481Z,27.90
2019-01-20T23:07:07.119Z,28.73
2019-01-20T23:09:34.671Z,30.53
2019-01-20T23:12:02.287Z,29.63
2019-01-20T23:14:29.797Z,31.50
2019-01-20T23:16:57.333Z,29.47
2019-01-20T23:19:24.866Z,29.97
2019-01-20T23:21:52.317Z,27.83
2019-01-20T23:24:19.799Z,30.53
2019-01-20T23:26:47.240Z,30.60
2019-01-20T23:29:14.714Z,30.13
2019-01-20T23:31:42.358Z,32.37
2019-01-20T23:34:09.820Z,31.10
2019-01-20T23:36:37.345Z,29.63
2019-01-20T23:39:06.597Z,28.93
2019-01-20T23:41:35.576Z,29.13
2019-01-20T23:44:03.252Z,29.47
2019-01-20T23:46:30.760Z,30.43
2019-01-20T23:48:58.234Z,29.10
2019-01-20T23:51:25.684Z,31.73
2019-01-20T23:53:53.000Z,31.10
2019-01-20T23:56:20.836Z,31.40
2019-01-20T23:58:48.166Z,30.47
